Forside
METAR-TAF:

METAR-TAF

Lufthavne :

Auckland, New Zealand

Breddekreds: 37-01S, længdekreds: 174-48E, højde: 7 m

Aktuelle vejr

Denne rapport blev lavet for 20 minutter siden, kl. 23:00 UTC
Vind 7 kt fra nord, varierende mellem nord og østsydøst
Temperatur 16°C
Fugtighed 88%
Tryk 1015 hPa
Sigt 10 km eller mere

METAR: NZAA 222300Z AUTO 01007KT 350V110 9999 NCD 16/14 Q1015

Tid: 11:20 (23:20 UTC)

Vejrudsigter

Denne rapport blev lavet for 3 timer og 12 minutter siden, kl. 20:08 UTC
Foreløbig gælder fra 22 på 21 UTC til 24 på 00 UTC
Vind 10 kt fra nordøst
Sigt 10 km eller mere
Nogle få skyer i en højde af 1500 ft
Spredte skyer i en højde af 3000 ft
let regn
ændring
fra 23 på 00 UTC til 23 på 02 UTC
Vind 5 kt fra vest
Sandsynlighed 30%
fra 23 på 15 UTC til 23 på 22 UTC
Sigt: 0400 m
tåge
ændring
fra 23 på 22 UTC til 24 på 00 UTC
Vind 10 kt fra østnordøst

TAF: NZAA 222008Z 2221/2400 04010KT 9999 -RA FEW015 SCT030 BECMG 2300/2302 26005KT PROB30 2315/2322 0400 FG BECMG 2322/2400 06010KT

Vejrobservationer og prognoser fra mere end 4000 lufthavne (METAR og TAF).

De gule og røde prikker repræsenterer de meteorologiske stationer.

Flyt musen over at se navnet på stationen.

Så klik over at se vejr observationer og prognoser.

At skifte det kort: Klik på de grønne knapper med et sort kors for at zoome ind; på den grønne knap med en bindestreg for at zoome ud; eller på de grønne pile for tilstødende kort.


METAR-TAF: